Time;durP1;ratioP1;P1;durP2;ratioP2;P2;SDS_P1;SDS_P2;PMS_P1;PMS_P2;Temp;Humidity;BMP_temperature;BMP_pressure;BME280_temperature;BME280_humidity;BME280_pressure;Samples;Min_cycle;Max_cycle;Signal;HPM_P1;HPM_P2
2023/02/02 00:01:18;;;;;;;6.20;1.20;;;;;;;;;;5014997;28;20092;-73
2023/02/02 00:03:43;;;;;;;8.32;1.67;;;;;;;;;;5016377;28;20041;-73
2023/02/02 00:06:09;;;;;;;9.00;1.52;;;;;;;;;;5014996;28;20423;-73
2023/02/02 00:08:36;;;;;;;6.20;1.40;;;;;;;;;;5017348;28;20030;-73
2023/02/02 00:11:02;;;;;;;6.85;1.50;;;;;;;;;;5007468;28;20044;-73
2023/02/02 00:13:28;;;;;;;13.18;2.10;;;;;;;;;;5018158;28;20121;-73
2023/02/02 00:15:53;;;;;;;18.23;2.60;;;;;;;;;;5022824;28;20042;-72
2023/02/02 00:18:18;;;;;;;12.10;2.35;;;;;;;;;;5016247;28;20529;-73
2023/02/02 00:20:46;;;;;;;11.43;2.47;;;;;;;;;;5015877;28;20038;-73
2023/02/02 00:23:11;;;;;;;13.50;2.80;;;;;;;;;;5015885;28;20049;-73
2023/02/02 00:25:37;;;;;;;12.65;2.03;;;;;;;;;;5017014;28;20026;-73
2023/02/02 00:28:02;;;;;;;10.52;1.85;;;;;;;;;;5016336;28;20073;-73
2023/02/02 00:30:28;;;;;;;10.35;2.33;;;;;;;;;;5016828;28;20038;-73
2023/02/02 00:32:53;;;;;;;10.82;2.45;;;;;;;;;;5015676;28;20096;-72
2023/02/02 00:35:19;;;;;;;16.35;2.50;;;;;;;;;;5016772;28;20045;-72
2023/02/02 00:37:44;;;;;;;9.75;2.28;;;;;;;;;;5011236;28;20184;-72
2023/02/02 00:40:10;;;;;;;16.23;2.60;;;;;;;;;;5014113;28;20112;-73
2023/02/02 00:42:35;;;;;;;16.75;2.25;;;;;;;;;;5019110;28;20048;-72
2023/02/02 00:45:17;;;;;;;15.27;2.60;;;;;;;;;;5016083;28;20045;-72
2023/02/02 00:47:47;;;;;;;7.32;2.15;;;;;;;;;;5004963;28;20033;-73
2023/02/02 00:50:20;;;;;;;11.10;2.25;;;;;;;;;;5019756;28;20088;-72
2023/02/02 00:52:47;;;;;;;13.73;2.57;;;;;;;;;;5014080;28;20125;-72
2023/02/02 00:55:13;;;;;;;16.00;3.08;;;;;;;;;;5018430;28;20516;-73
2023/02/02 00:57:40;;;;;;;12.63;2.55;;;;;;;;;;5015842;28;20061;-73
2023/02/02 01:00:06;;;;;;;16.35;2.55;;;;;;;;;;5015331;28;20034;-73
2023/02/02 01:02:33;;;;;;;10.57;2.13;;;;;;;;;;5016890;28;20041;-73
2023/02/02 01:04:59;;;;;;;23.40;3.10;;;;;;;;;;5015197;28;20044;-72
2023/02/02 01:07:24;;;;;;;13.52;2.13;;;;;;;;;;5015056;28;20117;-72
2023/02/02 01:09:49;;;;;;;11.60;2.13;;;;;;;;;;5016280;28;20460;-73
2023/02/02 01:12:15;;;;;;;12.18;2.55;;;;;;;;;;5016510;28;20038;-72
2023/02/02 01:14:40;;;;;;;15.48;2.58;;;;;;;;;;5017088;28;20069;-73
2023/02/02 01:17:06;;;;;;;9.20;1.83;;;;;;;;;;5011054;28;20433;-72
2023/02/02 01:19:31;;;;;;;12.05;1.85;;;;;;;;;;5017849;28;20257;-72
2023/02/02 01:21:56;;;;;;;10.75;1.95;;;;;;;;;;5014892;28;20101;-75
2023/02/02 01:24:22;;;;;;;9.38;1.42;;;;;;;;;;5017008;28;20532;-73
2023/02/02 01:26:47;;;;;;;10.45;2.00;;;;;;;;;;5014805;28;20041;-73
2023/02/02 01:29:14;;;;;;;10.88;2.50;;;;;;;;;;5015766;28;20520;-72
2023/02/02 01:31:41;;;;;;;12.00;2.20;;;;;;;;;;5014389;28;20095;-80
2023/02/02 01:34:06;;;;;;;11.15;1.95;;;;;;;;;;5011334;28;20032;-73
2023/02/02 01:36:32;;;;;;;9.55;1.63;;;;;;;;;;5012390;28;20045;-74
2023/02/02 01:38:57;;;;;;;12.05;1.63;;;;;;;;;;5023150;28;20041;-73
2023/02/02 01:41:24;;;;;;;10.93;2.08;;;;;;;;;;5014110;28;20026;-73
2023/02/02 01:43:53;;;;;;;11.40;1.80;;;;;;;;;;5023762;28;20034;-72
2023/02/02 01:46:33;;;;;;;10.60;1.33;;;;;;;;;;5016426;28;20144;-72
2023/02/02 01:49:11;;;;;;;9.13;1.58;;;;;;;;;;5018000;28;20071;-74
2023/02/02 01:51:42;;;;;;;11.20;1.33;;;;;;;;;;5012544;28;20046;-72
2023/02/02 01:54:11;;;;;;;12.02;1.67;;;;;;;;;;5013891;28;20052;-73
2023/02/02 01:56:42;;;;;;;8.57;1.60;;;;;;;;;;5014174;28;20052;-73
2023/02/02 01:59:09;;;;;;;10.38;2.00;;;;;;;;;;5015219;28;20040;-73
2023/02/02 02:01:34;;;;;;;9.15;1.77;;;;;;;;;;5014108;28;20046;-73
2023/02/02 02:04:00;;;;;;;9.00;1.30;;;;;;;;;;5015034;28;20397;-73
2023/02/02 02:06:25;;;;;;;8.73;1.52;;;;;;;;;;5013415;28;20103;-73
2023/02/02 02:08:59;;;;;;;11.77;1.45;;;;;;;;;;5013336;28;20091;-74
2023/02/02 02:11:25;;;;;;;5.03;1.23;;;;;;;;;;5010350;28;20097;-73
2023/02/02 02:17:15;;;;;;;4.93;1.05;;;;;;;;;;5012049;28;20036;-73
2023/02/02 02:26:40;;;;;;;4.40;1.30;;;;;;;;;;5008483;28;20056;-74
2023/02/02 02:29:38;;;;;;;9.32;1.30;;;;;;;;;;5015554;28;20108;-73
2023/02/02 02:32:09;;;;;;;8.55;1.25;;;;;;;;;;5013552;28;20037;-73
2023/02/02 02:34:55;;;;;;;8.82;1.77;;;;;;;;;;5014599;28;20045;-73
2023/02/02 02:37:42;;;;;;;3.17;1.00;;;;;;;;;;5012303;28;20038;-73
2023/02/02 02:40:33;;;;;;;4.55;1.20;;;;;;;;;;5016176;28;20137;-74
2023/02/02 02:43:02;;;;;;;8.32;2.25;;;;;;;;;;5013527;28;20400;-74
2023/02/02 02:45:28;;;;;;;12.68;1.52;;;;;;;;;;5016316;28;20023;-73
2023/02/02 02:47:54;;;;;;;4.00;1.35;;;;;;;;;;5012251;28;20499;-73
2023/02/02 02:50:20;;;;;;;4.53;1.40;;;;;;;;;;5015310;28;20037;-73
2023/02/02 02:52:47;;;;;;;6.90;1.13;;;;;;;;;;5020113;28;20067;-73
2023/02/02 02:55:12;;;;;;;7.57;1.60;;;;;;;;;;5013314;28;20042;-73
2023/02/02 02:58:04;;;;;;;5.15;1.20;;;;;;;;;;5019187;28;20405;-73
2023/02/02 03:00:41;;;;;;;11.27;1.00;;;;;;;;;;5009740;28;20069;-75
2023/02/02 03:03:10;;;;;;;5.90;1.10;;;;;;;;;;5005611;28;20034;-74
2023/02/02 03:06:19;;;;;;;6.70;1.00;;;;;;;;;;5024255;28;20052;-73
2023/02/02 03:08:49;;;;;;;7.35;1.40;;;;;;;;;;5016650;28;20112;-73
2023/02/02 03:11:15;;;;;;;5.57;0.90;;;;;;;;;;5014459;28;20073;-73
2023/02/02 03:13:41;;;;;;;7.80;1.58;;;;;;;;;;5015793;28;20086;-73
2023/02/02 03:16:07;;;;;;;7.53;1.20;;;;;;;;;;5015297;28;20037;-74
2023/02/02 03:18:33;;;;;;;2.47;0.75;;;;;;;;;;5013853;28;20504;-74
2023/02/02 03:20:59;;;;;;;9.45;1.10;;;;;;;;;;5013980;28;20033;-75
2023/02/02 03:23:25;;;;;;;4.05;0.93;;;;;;;;;;5014308;28;20482;-74
2023/02/02 03:25:50;;;;;;;7.15;1.40;;;;;;;;;;5012119;28;20049;-74
2023/02/02 03:28:16;;;;;;;9.15;1.23;;;;;;;;;;5016160;28;20469;-75
2023/02/02 03:30:43;;;;;;;8.75;2.40;;;;;;;;;;5012530;28;20046;-74
2023/02/02 03:33:09;;;;;;;5.93;1.27;;;;;;;;;;5011908;28;20046;-75
2023/02/02 03:35:35;;;;;;;4.40;1.35;;;;;;;;;;5010640;28;20062;-75
2023/02/02 03:38:00;;;;;;;14.98;1.83;;;;;;;;;;5011936;28;20077;-74
2023/02/02 03:40:27;;;;;;;8.50;1.58;;;;;;;;;;5013536;28;20478;-74
2023/02/02 03:42:52;;;;;;;5.57;1.35;;;;;;;;;;5012014;28;20041;-74
2023/02/02 03:45:18;;;;;;;9.15;1.40;;;;;;;;;;5017126;28;20501;-75
2023/02/02 03:47:43;;;;;;;7.72;1.42;;;;;;;;;;5023398;28;20436;-74
2023/02/02 03:50:09;;;;;;;3.70;1.20;;;;;;;;;;5017830;28;20055;-75
2023/02/02 03:52:34;;;;;;;7.75;1.58;;;;;;;;;;5015998;28;20410;-74
2023/02/02 03:55:00;;;;;;;8.23;2.00;;;;;;;;;;5025839;28;20038;-74
2023/02/02 03:57:25;;;;;;;7.55;1.50;;;;;;;;;;5019111;28;20033;-74
2023/02/02 03:59:51;;;;;;;11.10;1.73;;;;;;;;;;5016377;28;20129;-74
2023/02/02 04:02:16;;;;;;;7.47;1.45;;;;;;;;;;5015067;28;20120;-74
2023/02/02 04:04:42;;;;;;;7.43;1.73;;;;;;;;;;5017393;28;20402;-74
2023/02/02 04:07:07;;;;;;;10.10;1.60;;;;;;;;;;5020825;28;20113;-74
2023/02/02 04:09:32;;;;;;;5.00;1.20;;;;;;;;;;5018274;28;20123;-73
2023/02/02 04:11:58;;;;;;;5.68;1.20;;;;;;;;;;5018358;28;20044;-73
2023/02/02 04:14:23;;;;;;;8.38;2.03;;;;;;;;;;5018813;28;20048;-72
2023/02/02 04:16:49;;;;;;;8.18;1.48;;;;;;;;;;5016808;28;20037;-72
2023/02/02 04:19:15;;;;;;;9.70;1.80;;;;;;;;;;5019507;28;20026;-72
2023/02/02 04:21:41;;;;;;;10.30;1.52;;;;;;;;;;5016173;28;20041;-73
2023/02/02 04:24:10;;;;;;;9.43;1.85;;;;;;;;;;5020298;28;20068;-74
2023/02/02 04:26:35;;;;;;;9.23;1.98;;;;;;;;;;5014832;28;20053;-73
2023/02/02 04:29:01;;;;;;;7.40;1.80;;;;;;;;;;5017635;28;20061;-73
2023/02/02 04:31:28;;;;;;;9.85;1.92;;;;;;;;;;5015811;28;20042;-73
2023/02/02 04:33:54;;;;;;;12.60;2.15;;;;;;;;;;5016749;28;20030;-72
2023/02/02 04:36:19;;;;;;;9.32;1.85;;;;;;;;;;5015649;28;20041;-73
2023/02/02 04:38:51;;;;;;;9.68;1.90;;;;;;;;;;5016863;28;20124;-72
2023/02/02 04:41:17;;;;;;;12.85;2.80;;;;;;;;;;5012932;28;20033;-72
2023/02/02 04:43:43;;;;;;;10.07;1.88;;;;;;;;;;5022073;28;20058;-72
2023/02/02 04:46:09;;;;;;;8.60;2.08;;;;;;;;;;5017842;28;20389;-76
2023/02/02 04:48:34;;;;;;;10.85;1.80;;;;;;;;;;5024856;28;20048;-73
2023/02/02 04:51:02;;;;;;;8.38;1.98;;;;;;;;;;5013790;28;20042;-73
2023/02/02 04:53:28;;;;;;;11.57;1.95;;;;;;;;;;5014120;28;20111;-72
2023/02/02 04:55:53;;;;;;;11.65;2.20;;;;;;;;;;5014237;28;20469;-72
2023/02/02 04:58:19;;;;;;;8.30;1.73;;;;;;;;;;5018125;28;20034;-72
2023/02/02 05:00:44;;;;;;;13.90;2.80;;;;;;;;;;5015550;28;20172;-72
2023/02/02 05:03:09;;;;;;;13.60;1.75;;;;;;;;;;5015138;28;20382;-72
2023/02/02 05:05:35;;;;;;;10.20;2.10;;;;;;;;;;5023212;28;20055;-73
2023/02/02 05:08:00;;;;;;;8.50;1.60;;;;;;;;;;5016396;28;20170;-74
2023/02/02 05:10:25;;;;;;;9.50;1.80;;;;;;;;;;5016079;28;20029;-73
2023/02/02 05:12:52;;;;;;;7.70;2.15;;;;;;;;;;5019576;28;20056;-73
2023/02/02 05:15:17;;;;;;;7.60;2.10;;;;;;;;;;5015822;28;20065;-72
2023/02/02 05:17:43;;;;;;;10.10;1.95;;;;;;;;;;5026887;28;20065;-72
2023/02/02 05:20:09;;;;;;;11.40;1.90;;;;;;;;;;5016207;28;20398;-73
2023/02/02 05:22:34;;;;;;;14.52;3.08;;;;;;;;;;5015321;28;20045;-73
2023/02/02 05:25:00;;;;;;;7.55;2.47;;;;;;;;;;5015871;28;20026;-72
2023/02/02 05:27:25;;;;;;;14.38;2.40;;;;;;;;;;5014324;28;20533;-73
2023/02/02 05:29:50;;;;;;;11.20;2.85;;;;;;;;;;5016183;28;20057;-72
2023/02/02 05:32:16;;;;;;;9.75;3.05;;;;;;;;;;5014588;28;20057;-72
2023/02/02 05:34:41;;;;;;;9.40;2.00;;;;;;;;;;5023955;28;20042;-73
2023/02/02 05:37:06;;;;;;;11.23;2.63;;;;;;;;;;5014632;28;20072;-73
2023/02/02 05:39:32;;;;;;;11.05;1.83;;;;;;;;;;5015666;28;20540;-73
2023/02/02 05:41:58;;;;;;;8.07;2.42;;;;;;;;;;5017083;28;20044;-72
2023/02/02 05:44:23;;;;;;;15.80;2.70;;;;;;;;;;5014518;28;20393;-73
2023/02/02 05:46:48;;;;;;;11.27;2.53;;;;;;;;;;5015001;28;20029;-73
2023/02/02 05:49:14;;;;;;;7.15;2.80;;;;;;;;;;5024063;28;20048;-73
2023/02/02 05:51:44;;;;;;;12.02;3.25;;;;;;;;;;5014093;28;20087;-73
2023/02/02 05:54:09;;;;;;;14.48;2.60;;;;;;;;;;5017947;28;20385;-72
2023/02/02 05:56:35;;;;;;;7.20;3.05;;;;;;;;;;5014695;28;20033;-76
2023/02/02 05:59:00;;;;;;;14.45;3.05;;;;;;;;;;5015356;28;20037;-72
2023/02/02 06:01:26;;;;;;;13.10;3.53;;;;;;;;;;5014136;28;20120;-73
2023/02/02 06:03:51;;;;;;;9.93;2.75;;;;;;;;;;5014450;28;20049;-73
2023/02/02 06:06:16;;;;;;;10.55;2.90;;;;;;;;;;5017413;28;20033;-73
2023/02/02 06:08:42;;;;;;;14.43;3.53;;;;;;;;;;5015182;28;20119;-72
2023/02/02 06:11:15;;;;;;;16.73;2.83;;;;;;;;;;5013415;28;20045;-73
2023/02/02 06:13:41;;;;;;;9.68;3.78;;;;;;;;;;5014240;28;20139;-73
2023/02/02 06:16:07;;;;;;;22.35;3.20;;;;;;;;;;5009338;28;20129;-75
2023/02/02 06:18:33;;;;;;;18.92;3.30;;;;;;;;;;5021376;28;20038;-72
2023/02/02 06:21:00;;;;;;;13.10;3.20;;;;;;;;;;5009917;28;20654;-73
2023/02/02 06:23:26;;;;;;;16.52;2.97;;;;;;;;;;5019490;28;20426;-73
2023/02/02 06:25:52;;;;;;;19.48;3.67;;;;;;;;;;5015215;28;20536;-73
2023/02/02 06:28:17;;;;;;;16.83;3.38;;;;;;;;;;5021653;28;20029;-73
2023/02/02 06:30:42;;;;;;;21.65;4.13;;;;;;;;;;5014033;28;20037;-73
2023/02/02 06:33:08;;;;;;;19.63;3.92;;;;;;;;;;5013688;28;20040;-74
2023/02/02 06:35:33;;;;;;;10.65;4.05;;;;;;;;;;5014588;28;20454;-73
2023/02/02 06:37:58;;;;;;;16.83;3.58;;;;;;;;;;5013608;28;20049;-73
2023/02/02 06:40:25;;;;;;;20.45;4.15;;;;;;;;;;5021713;28;20069;-73
2023/02/02 06:42:57;;;;;;;21.77;3.83;;;;;;;;;;5012439;28;20057;-73
2023/02/02 06:45:24;;;;;;;13.80;3.60;;;;;;;;;;4993758;28;20390;-72
2023/02/02 06:47:49;;;;;;;12.25;3.67;;;;;;;;;;5013649;28;20549;-72
2023/02/02 06:50:15;;;;;;;14.55;3.60;;;;;;;;;;5019298;28;20115;-73
2023/02/02 06:52:47;;;;;;;25.23;4.13;;;;;;;;;;5013382;28;20474;-73
2023/02/02 06:55:12;;;;;;;21.75;3.47;;;;;;;;;;5017050;28;20500;-73
2023/02/02 06:57:38;;;;;;;15.20;3.13;;;;;;;;;;5015793;28;20069;-73
2023/02/02 07:00:04;;;;;;;18.80;3.95;;;;;;;;;;5013562;28;20069;-74
2023/02/02 07:02:29;;;;;;;18.48;3.30;;;;;;;;;;5008884;28;20109;-72
2023/02/02 07:04:54;;;;;;;14.30;3.03;;;;;;;;;;5009197;28;20037;-72
2023/02/02 07:07:20;;;;;;;14.50;2.65;;;;;;;;;;5014190;28;20033;-72
2023/02/02 07:09:45;;;;;;;14.55;2.85;;;;;;;;;;5014309;28;20045;-72
2023/02/02 07:12:10;;;;;;;18.92;3.53;;;;;;;;;;5014029;28;20041;-72
2023/02/02 07:14:36;;;;;;;13.13;2.90;;;;;;;;;;5014858;28;20048;-72
2023/02/02 07:17:02;;;;;;;14.80;3.13;;;;;;;;;;5013243;28;20111;-73
2023/02/02 07:19:27;;;;;;;14.95;2.50;;;;;;;;;;5021449;28;20029;-72
2023/02/02 07:21:53;;;;;;;14.25;3.33;;;;;;;;;;5014506;28;20065;-73
2023/02/02 07:24:18;;;;;;;18.63;3.40;;;;;;;;;;5021032;28;20065;-72
2023/02/02 07:26:43;;;;;;;16.50;2.92;;;;;;;;;;5017345;28;20381;-73
2023/02/02 07:29:12;;;;;;;11.25;3.47;;;;;;;;;;5018081;28;20052;-72
2023/02/02 07:31:38;;;;;;;20.65;2.63;;;;;;;;;;5005194;28;20045;-72
2023/02/02 07:34:03;;;;;;;13.48;2.80;;;;;;;;;;5014646;28;20026;-72
2023/02/02 07:36:29;;;;;;;7.10;2.42;;;;;;;;;;5017057;28;20390;-72
2023/02/02 07:38:56;;;;;;;10.05;2.95;;;;;;;;;;5017798;28;20386;-72
2023/02/02 07:41:22;;;;;;;15.73;2.55;;;;;;;;;;5016970;28;20026;-72
2023/02/02 07:43:48;;;;;;;14.45;3.05;;;;;;;;;;5020899;28;20546;-73
2023/02/02 07:46:14;;;;;;;10.13;3.13;;;;;;;;;;5015501;28;20092;-72
2023/02/02 07:48:39;;;;;;;5.53;2.45;;;;;;;;;;5015539;28;20160;-74
2023/02/02 07:51:07;;;;;;;19.38;2.70;;;;;;;;;;5015145;28;20108;-73
2023/02/02 07:53:33;;;;;;;9.45;2.60;;;;;;;;;;5016768;28;20168;-73
2023/02/02 07:56:10;;;;;;;9.38;2.78;;;;;;;;;;5022871;28;20037;-73
2023/02/02 07:58:36;;;;;;;12.00;3.08;;;;;;;;;;5026655;28;20045;-72
2023/02/02 08:01:06;;;;;;;12.07;3.25;;;;;;;;;;5021252;28;20030;-73
2023/02/02 08:03:33;;;;;;;11.65;3.15;;;;;;;;;;5016009;28;20046;-73
2023/02/02 08:05:59;;;;;;;9.20;2.58;;;;;;;;;;5016338;28;20117;-72
2023/02/02 08:08:24;;;;;;;6.70;3.13;;;;;;;;;;5017306;28;20110;-73
2023/02/02 08:10:51;;;;;;;10.85;3.70;;;;;;;;;;5014947;28;20109;-73
2023/02/02 08:13:16;;;;;;;8.77;3.53;;;;;;;;;;5014512;28;20088;-73
2023/02/02 08:15:42;;;;;;;10.25;3.30;;;;;;;;;;5013940;28;20034;-73
2023/02/02 08:18:07;;;;;;;10.57;2.80;;;;;;;;;;5018172;28;20397;-73
2023/02/02 08:20:33;;;;;;;7.00;2.67;;;;;;;;;;5021747;28;20121;-73
2023/02/02 08:22:58;;;;;;;8.63;3.97;;;;;;;;;;5007899;28;20036;-73
2023/02/02 08:25:24;;;;;;;12.73;5.45;;;;;;;;;;5011223;28;20030;-73
2023/02/02 08:27:53;;;;;;;9.48;4.05;;;;;;;;;;5001329;28;20048;-73
2023/02/02 08:30:18;;;;;;;12.65;5.20;;;;;;;;;;5013761;28;20462;-74
2023/02/02 08:32:44;;;;;;;10.95;6.07;;;;;;;;;;5014598;28;20037;-73
2023/02/02 08:35:09;;;;;;;10.48;4.75;;;;;;;;;;5015040;28;20069;-73
2023/02/02 08:37:34;;;;;;;9.77;4.00;;;;;;;;;;5014899;28;20038;-74
2023/02/02 08:40:00;;;;;;;7.22;3.88;;;;;;;;;;5011869;28;20026;-73
2023/02/02 08:42:25;;;;;;;7.78;3.75;;;;;;;;;;5015366;28;20112;-73
2023/02/02 08:44:50;;;;;;;5.63;1.80;;;;;;;;;;5014566;28;20037;-73
2023/02/02 08:47:16;;;;;;;6.88;2.70;;;;;;;;;;5015149;28;20454;-74
2023/02/02 08:49:41;;;;;;;5.95;2.50;;;;;;;;;;5014167;28;20037;-73
2023/02/02 08:52:07;;;;;;;6.63;2.55;;;;;;;;;;5014762;28;20077;-74
2023/02/02 08:54:32;;;;;;;6.90;2.13;;;;;;;;;;5014118;28;20041;-73
2023/02/02 08:56:58;;;;;;;7.30;2.05;;;;;;;;;;5023979;28;20048;-73
2023/02/02 08:59:23;;;;;;;5.72;2.33;;;;;;;;;;5020444;28;20109;-74
2023/02/02 09:01:49;;;;;;;4.97;2.58;;;;;;;;;;5011534;28;20113;-74
2023/02/02 09:04:17;;;;;;;2.97;1.42;;;;;;;;;;5015227;28;20038;-73
2023/02/02 09:06:43;;;;;;;6.75;1.58;;;;;;;;;;5014562;28;20214;-74
2023/02/02 09:09:11;;;;;;;7.40;1.67;;;;;;;;;;5010278;28;20121;-74
2023/02/02 09:11:37;;;;;;;5.88;1.50;;;;;;;;;;5014782;28;20049;-72
2023/02/02 09:14:05;;;;;;;2.67;1.27;;;;;;;;;;4996774;28;20478;-72
2023/02/02 09:16:31;;;;;;;4.78;1.50;;;;;;;;;;5013801;28;20022;-75
2023/02/02 09:18:57;;;;;;;8.48;1.92;;;;;;;;;;5013965;28;20501;-73
2023/02/02 09:21:22;;;;;;;8.38;1.65;;;;;;;;;;5011021;28;20033;-74
2023/02/02 09:23:49;;;;;;;5.25;1.52;;;;;;;;;;5011050;28;20037;-73
2023/02/02 09:26:20;;;;;;;3.05;1.55;;;;;;;;;;5008130;28;20582;-74
2023/02/02 09:28:48;;;;;;;4.80;1.90;;;;;;;;;;5003723;28;20374;-74
2023/02/02 09:31:14;;;;;;;6.97;1.98;;;;;;;;;;5010580;28;20029;-73
2023/02/02 09:33:40;;;;;;;5.35;2.10;;;;;;;;;;5010122;28;20093;-73
2023/02/02 09:36:11;;;;;;;8.20;1.90;;;;;;;;;;5015785;28;20059;-74
2023/02/02 09:38:37;;;;;;;4.93;1.58;;;;;;;;;;5015692;28;20050;-73
2023/02/02 09:41:23;;;;;;;10.55;1.25;;;;;;;;;;5014384;28;20091;-73
2023/02/02 09:43:54;;;;;;;5.28;1.42;;;;;;;;;;5015621;28;20045;-74
2023/02/02 09:46:25;;;;;;;10.52;1.90;;;;;;;;;;5012322;28;20125;-74
2023/02/02 09:49:00;;;;;;;5.65;1.55;;;;;;;;;;5014467;28;20065;-73
2023/02/02 09:51:28;;;;;;;3.90;1.00;;;;;;;;;;5012372;28;20049;-74
2023/02/02 09:54:05;;;;;;;4.78;1.95;;;;;;;;;;5013620;28;20042;-74
2023/02/02 09:56:37;;;;;;;5.00;1.20;;;;;;;;;;5012956;28;20436;-73
2023/02/02 09:59:05;;;;;;;8.32;2.00;;;;;;;;;;5010654;28;20050;-74
2023/02/02 10:01:35;;;;;;;4.95;1.60;;;;;;;;;;5012974;28;20394;-74
2023/02/02 10:04:26;;;;;;;4.32;1.55;;;;;;;;;;5013216;28;20030;-73
2023/02/02 10:06:55;;;;;;;7.78;1.77;;;;;;;;;;5014136;28;20034;-73
2023/02/02 10:09:42;;;;;;;6.05;2.13;;;;;;;;;;5014544;28;20450;-74
2023/02/02 10:12:20;;;;;;;6.70;2.55;;;;;;;;;;5003584;28;20038;-74
2023/02/02 10:14:53;;;;;;;9.20;3.00;;;;;;;;;;5013741;28;20046;-76
2023/02/02 10:17:40;;;;;;;5.28;2.03;;;;;;;;;;5002952;28;20030;-77
2023/02/02 10:20:14;;;;;;;6.57;2.10;;;;;;;;;;5009568;28;20038;-74
2023/02/02 10:22:40;;;;;;;10.93;2.30;;;;;;;;;;5010009;28;20042;-73
2023/02/02 10:25:11;;;;;;;10.10;2.05;;;;;;;;;;5009986;28;20436;-74
2023/02/02 10:27:38;;;;;;;4.82;1.80;;;;;;;;;;5009819;28;20045;-73
2023/02/02 10:30:14;;;;;;;5.18;2.03;;;;;;;;;;5008629;28;20116;-74
2023/02/02 10:33:21;;;;;;;9.55;1.98;;;;;;;;;;5008858;28;20048;-74
2023/02/02 10:35:52;;;;;;;5.20;1.98;;;;;;;;;;4993885;28;20449;-74
2023/02/02 10:38:33;;;;;;;6.13;2.00;;;;;;;;;;4997487;28;20493;-73
2023/02/02 10:41:10;;;;;;;5.03;2.20;;;;;;;;;;5010554;28;20050;-74
2023/02/02 10:43:58;;;;;;;5.35;2.10;;;;;;;;;;5008316;28;20493;-75
2023/02/02 10:46:32;;;;;;;8.35;2.47;;;;;;;;;;5009427;28;20042;-74
2023/02/02 10:49:26;;;;;;;5.20;2.17;;;;;;;;;;5008355;28;20123;-74
2023/02/02 10:52:00;;;;;;;7.82;2.88;;;;;;;;;;5008350;28;20108;-73
2023/02/02 10:55:04;;;;;;;9.30;2.30;;;;;;;;;;5009710;28;20030;-74
2023/02/02 10:57:37;;;;;;;6.13;1.58;;;;;;;;;;4998463;28;20041;-73
2023/02/02 11:00:06;;;;;;;;;;;;;;;;;;5008553;28;20109;-74
2023/02/02 11:02:31;;;;;;;4.53;0.90;;;;;;;;;;4998302;28;20409;-74
2023/02/02 11:07:41;;;;;;;2.80;0.85;;;;;;;;;;5007923;28;20068;-73
2023/02/02 11:10:07;;;;;;;4.57;0.90;;;;;;;;;;5006344;28;20066;-74
2023/02/02 11:12:34;;;;;;;1.83;0.88;;;;;;;;;;5004788;28;20145;-74
2023/02/02 11:15:03;;;;;;;2.55;0.60;;;;;;;;;;5004382;28;20042;-74
2023/02/02 11:17:29;;;;;;;4.68;0.95;;;;;;;;;;4997896;28;20505;-74
2023/02/02 11:19:55;;;;;;;3.63;0.90;;;;;;;;;;5007162;28;20030;-74
2023/02/02 11:22:33;;;;;;;2.00;0.70;;;;;;;;;;4993271;28;20034;-74
2023/02/02 11:25:07;;;;;;;3.08;0.90;;;;;;;;;;5005389;28;20056;-73
2023/02/02 11:27:40;;;;;;;6.40;1.00;;;;;;;;;;5007707;28;20566;-73
2023/02/02 11:30:20;;;;;;;3.85;0.90;;;;;;;;;;4994974;28;20068;-75
2023/02/02 11:32:48;;;;;;;1.45;0.80;;;;;;;;;;5008285;28;20073;-73
2023/02/02 11:35:15;;;;;;;1.20;0.70;;;;;;;;;;5008738;28;20048;-73
2023/02/02 11:38:18;;;;;;;1.83;0.80;;;;;;;;;;4991903;28;20057;-73
2023/02/02 11:40:45;;;;;;;3.08;0.93;;;;;;;;;;5000423;28;20050;-74
2023/02/02 11:43:14;;;;;;;2.63;0.82;;;;;;;;;;5007358;28;20359;-75
2023/02/02 11:45:42;;;;;;;2.72;1.00;;;;;;;;;;5007658;28;20056;-74
2023/02/02 11:48:18;;;;;;;3.78;0.80;;;;;;;;;;5003150;28;20105;-75
2023/02/02 11:50:49;;;;;;;1.77;0.77;;;;;;;;;;5000466;28;20074;-74
2023/02/02 11:53:28;;;;;;;2.05;0.80;;;;;;;;;;5006890;28;20402;-75
2023/02/02 11:55:54;;;;;;;2.10;0.82;;;;;;;;;;4990061;28;20073;-73
2023/02/02 11:58:26;;;;;;;2.38;0.85;;;;;;;;;;5007903;28;20057;-74
2023/02/02 12:00:57;;;;;;;4.78;0.80;;;;;;;;;;5007245;28;20060;-73
2023/02/02 12:03:32;;;;;;;2.92;1.17;;;;;;;;;;5006709;28;20109;-74
2023/02/02 12:06:00;;;;;;;2.15;1.00;;;;;;;;;;5006283;28;20371;-77
2023/02/02 12:08:26;;;;;;;2.15;0.80;;;;;;;;;;5008437;28;21013;-73
2023/02/02 12:11:00;;;;;;;1.95;0.85;;;;;;;;;;5009973;28;20116;-74
2023/02/02 12:13:50;;;;;;;2.03;0.80;;;;;;;;;;5009895;28;20033;-73
2023/02/02 12:16:37;;;;;;;1.67;0.70;;;;;;;;;;5017182;28;20043;-74
2023/02/02 12:19:25;;;;;;;3.33;0.70;;;;;;;;;;5000360;28;20045;-74
2023/02/02 12:22:14;;;;;;;2.33;0.90;;;;;;;;;;5000397;28;20064;-75
2023/02/02 12:25:08;;;;;;;2.08;0.70;;;;;;;;;;5016720;28;20042;-74
2023/02/02 12:28:01;;;;;;;1.70;0.63;;;;;;;;;;5023229;28;20503;-74
2023/02/02 12:30:41;;;;;;;1.27;0.52;;;;;;;;;;5013143;28;20041;-74
2023/02/02 12:33:11;;;;;;;3.63;0.68;;;;;;;;;;5015818;28;20042;-74
2023/02/02 12:36:01;;;;;;;1.55;0.50;;;;;;;;;;5014335;28;20037;-74
2023/02/02 12:38:48;;;;;;;1.17;0.50;;;;;;;;;;5015923;28;20045;-74
2023/02/02 12:41:26;;;;;;;1.48;0.65;;;;;;;;;;4999531;28;20046;-74
2023/02/02 12:44:03;;;;;;;4.05;0.63;;;;;;;;;;5013961;28;20121;-74
2023/02/02 12:46:40;;;;;;;1.67;0.70;;;;;;;;;;5014091;28;20129;-74
2023/02/02 12:49:32;;;;;;;3.05;0.80;;;;;;;;;;5017997;28;20041;-74
2023/02/02 12:52:14;;;;;;;3.25;0.85;;;;;;;;;;5003793;28;20120;-77
2023/02/02 12:54:56;;;;;;;5.00;0.90;;;;;;;;;;5012382;28;20046;-74
2023/02/02 12:57:27;;;;;;;4.22;0.63;;;;;;;;;;5018121;28;20034;-74
2023/02/02 13:00:22;;;;;;;1.80;0.88;;;;;;;;;;5013906;28;20064;-74
2023/02/02 13:03:06;;;;;;;1.90;0.47;;;;;;;;;;5004094;28;20058;-74
2023/02/02 13:06:05;;;;;;;7.85;0.80;;;;;;;;;;5017804;28;20073;-74
2023/02/02 13:08:55;;;;;;;0.80;0.50;;;;;;;;;;5014092;28;20111;-74
2023/02/02 13:11:37;;;;;;;2.78;0.50;;;;;;;;;;5013618;28;20042;-73
2023/02/02 13:14:10;;;;;;;1.17;0.60;;;;;;;;;;5003236;28;20034;-74
2023/02/02 13:16:39;;;;;;;0.85;0.40;;;;;;;;;;5014713;28;20050;-74
2023/02/02 13:19:08;;;;;;;2.10;0.50;;;;;;;;;;5015033;28;20045;-75
2023/02/02 13:21:35;;;;;;;2.67;0.65;;;;;;;;;;5014351;28;20049;-74
2023/02/02 13:24:02;;;;;;;3.05;0.82;;;;;;;;;;5009969;28;20121;-74
2023/02/02 13:26:36;;;;;;;1.95;0.80;;;;;;;;;;5017487;28;20530;-74
2023/02/02 13:29:20;;;;;;;;;;;;;;;;;;5012243;28;20481;-74
2023/02/02 13:32:18;;;;;;;2.05;0.60;;;;;;;;;;5017646;28;19920;-74
2023/02/02 13:34:51;;;;;;;4.75;0.50;;;;;;;;;;5007462;28;20056;-74
2023/02/02 13:37:36;;;;;;;1.13;0.57;;;;;;;;;;5008760;28;20066;-74
2023/02/02 13:40:24;;;;;;;5.00;0.90;;;;;;;;;;5011307;28;20038;-74
2023/02/02 13:42:50;;;;;;;1.73;0.63;;;;;;;;;;5011612;28;20033;-74
2023/02/02 13:45:43;;;;;;;8.55;0.73;;;;;;;;;;5013925;28;20034;-74
2023/02/02 13:48:16;;;;;;;2.38;0.68;;;;;;;;;;5022338;28;20026;-74
2023/02/02 13:51:13;;;;;;;1.83;0.50;;;;;;;;;;5017280;28;20124;-73
2023/02/02 13:53:45;;;;;;;4.88;0.70;;;;;;;;;;5003512;28;20041;-74
2023/02/02 13:56:32;;;;;;;5.22;0.82;;;;;;;;;;4993751;28;20051;-74
2023/02/02 13:58:58;;;;;;;4.78;0.90;;;;;;;;;;5013572;28;20037;-79
2023/02/02 14:01:24;;;;;;;4.32;0.70;;;;;;;;;;5008370;28;20125;-77
2023/02/02 14:03:54;;;;;;;1.58;0.60;;;;;;;;;;5014970;28;20035;-74
2023/02/02 14:06:22;;;;;;;3.50;1.17;;;;;;;;;;5010350;28;20056;-74
2023/02/02 14:08:52;;;;;;;0.75;0.50;;;;;;;;;;5017154;28;20044;-74
2023/02/02 14:11:26;;;;;;;4.30;0.85;;;;;;;;;;5004503;28;20034;-74
2023/02/02 14:16:36;;;;;;;1.75;0.60;;;;;;;;;;5015646;28;19923;-74
2023/02/02 14:19:07;;;;;;;3.13;0.60;;;;;;;;;;5020943;28;20128;-74
2023/02/02 14:21:32;;;;;;;0.63;0.40;;;;;;;;;;4993653;28;20109;-74
2023/02/02 14:24:26;;;;;;;5.28;0.82;;;;;;;;;;5018770;28;20534;-75
2023/02/02 14:26:59;;;;;;;3.00;0.80;;;;;;;;;;5018163;28;20397;-74
2023/02/02 14:29:30;;;;;;;1.67;0.65;;;;;;;;;;5014499;28;20029;-74
2023/02/02 14:32:03;;;;;;;1.52;0.70;;;;;;;;;;5008186;28;20041;-74
2023/02/02 14:34:36;;;;;;;4.03;0.82;;;;;;;;;;5010229;28;20049;-75
2023/02/02 14:37:22;;;;;;;5.68;1.02;;;;;;;;;;5009216;28;20548;-74
2023/02/02 14:40:06;;;;;;;2.72;0.80;;;;;;;;;;5010581;28;20121;-75
2023/02/02 14:46:06;;;;;;;2.50;0.70;;;;;;;;;;4998756;28;20048;-74
2023/02/02 14:48:32;;;;;;;2.45;0.80;;;;;;;;;;5005446;28;20049;-74
2023/02/02 14:50:59;;;;;;;6.30;0.93;;;;;;;;;;5008666;28;20038;-74
2023/02/02 14:53:33;;;;;;;4.22;0.68;;;;;;;;;;5010133;28;20065;-74
2023/02/02 14:56:07;;;;;;;6.63;1.00;;;;;;;;;;4999740;28;20034;-74
2023/02/02 14:58:42;;;;;;;2.53;0.68;;;;;;;;;;5032832;28;20497;-74
2023/02/02 15:01:10;;;;;;;1.30;0.60;;;;;;;;;;5015939;28;20042;-74
2023/02/02 15:03:56;;;;;;;1.60;0.50;;;;;;;;;;5011892;28;20164;-74
2023/02/02 15:06:21;;;;;;;1.83;0.70;;;;;;;;;;5007822;28;20037;-74
2023/02/02 15:09:22;;;;;;;3.30;0.60;;;;;;;;;;5015884;28;20539;-74
2023/02/02 15:12:02;;;;;;;2.83;0.75;;;;;;;;;;5010380;28;20544;-74
2023/02/02 15:14:46;;;;;;;4.13;0.82;;;;;;;;;;5015472;28;20050;-76
2023/02/02 15:17:39;;;;;;;4.95;1.23;;;;;;;;;;5010382;28;20048;-75